Time;durP1;ratioP1;P1;durP2;ratioP2;P2;SDS_P1;SDS_P2;PMS_P1;PMS_P2;Temp;Humidity;BMP_temperature;BMP_pressure;BME280_temperature;BME280_humidity;BME280_pressure;Samples;Min_cycle;Max_cycle;Signal;HPM_P1;HPM_P2
2021/03/25 00:00:47;;;;;;;14.83;10.90;;;;;;;6.71;68.27;97214.38;4992928;28;20203;-66
2021/03/25 00:03:15;;;;;;;16.93;11.87;;;;;;;6.69;68.14;97213.75;5011578;28;20258;-66
2021/03/25 00:05:41;;;;;;;18.60;12.30;;;;;;;6.68;68.36;97207.78;5010569;28;20541;-66
2021/03/25 00:08:08;;;;;;;14.90;11.40;;;;;;;6.59;68.86;97208.91;5011371;28;20194;-66
2021/03/25 00:10:36;;;;;;;19.77;12.07;;;;;;;6.44;69.32;97213.41;5010393;28;20215;-73
2021/03/25 00:13:02;;;;;;;17.03;13.10;;;;;;;6.38;69.88;97197.75;5010914;28;20179;-66
2021/03/25 00:15:28;;;;;;;20.60;12.03;;;;;;;6.36;70.01;97213.53;5011251;28;20187;-66
2021/03/25 00:17:55;;;;;;;17.87;12.77;;;;;;;6.36;70.38;97210.94;5010545;28;20195;-67
2021/03/25 00:20:21;;;;;;;19.00;11.90;;;;;;;6.31;70.33;97207.28;5010093;28;20186;-65
2021/03/25 00:22:47;;;;;;;18.93;12.77;;;;;;;6.36;70.70;97207.53;5010263;28;20179;-65
2021/03/25 00:25:16;;;;;;;19.13;12.80;;;;;;;6.17;71.08;97198.59;5010377;28;20211;-67
2021/03/25 00:27:42;;;;;;;19.30;11.73;;;;;;;6.15;71.21;97203.97;5010845;28;20644;-66
2021/03/25 00:30:10;;;;;;;21.70;12.60;;;;;;;6.26;71.16;97202.66;5011080;28;20210;-65
2021/03/25 00:32:36;;;;;;;19.07;12.53;;;;;;;6.15;71.43;97200.56;5010954;28;20815;-73
2021/03/25 00:35:02;;;;;;;19.17;12.90;;;;;;;6.07;71.41;97193.72;5010157;28;20183;-66
2021/03/25 00:37:28;;;;;;;16.60;12.20;;;;;;;6.08;71.38;97192.72;4993623;28;20183;-66
2021/03/25 00:39:53;;;;;;;22.50;11.97;;;;;;;6.17;71.15;97190.78;5010287;28;20183;-66
2021/03/25 00:42:19;;;;;;;16.53;11.77;;;;;;;6.02;71.71;97192.69;5011178;28;20172;-66
2021/03/25 00:44:44;;;;;;;20.87;12.53;;;;;;;6.05;71.18;97192.28;5010126;28;20207;-66
2021/03/25 00:47:10;;;;;;;17.27;11.80;;;;;;;5.93;71.88;97193.78;5014286;28;20186;-66
2021/03/25 00:49:36;;;;;;;17.20;11.33;;;;;;;5.82;72.27;97188.06;5014450;28;20191;-73
2021/03/25 00:52:02;;;;;;;17.40;12.00;;;;;;;5.79;72.34;97188.44;5014134;28;20179;-66
2021/03/25 00:54:27;;;;;;;19.50;12.17;;;;;;;5.78;72.56;97186.03;4996197;28;20630;-66
2021/03/25 00:56:53;;;;;;;19.83;12.10;;;;;;;5.68;73.04;97185.53;5013389;28;20221;-67
2021/03/25 00:59:18;;;;;;;15.90;11.90;;;;;;;5.71;73.18;97175.56;5014506;28;20175;-66
2021/03/25 01:01:44;;;;;;;15.47;11.47;;;;;;;5.61;72.78;97177.66;5013812;28;20179;-66
2021/03/25 01:04:09;;;;;;;16.57;11.60;;;;;;;5.80;72.22;97174.44;5014243;28;20225;-65
2021/03/25 01:06:35;;;;;;;17.57;11.30;;;;;;;5.71;72.56;97172.16;5013412;28;20552;-71
2021/03/25 01:09:00;;;;;;;17.23;10.43;;;;;;;5.72;72.36;97171.16;5013114;28;20183;-66
2021/03/25 01:11:27;;;;;;;13.60;9.80;;;;;;;5.90;71.07;97168.97;5013650;28;20592;-65
2021/03/25 01:13:57;;;;;;;16.70;10.40;;;;;;;5.84;71.17;97165.28;5013616;28;20167;-65
2021/03/25 01:16:32;;;;;;;15.73;10.47;;;;;;;6.00;70.35;97169.44;5014502;28;20194;-65
2021/03/25 01:18:59;;;;;;;17.10;10.37;;;;;;;5.96;70.84;97159.59;5013407;28;20233;-65
2021/03/25 01:21:26;;;;;;;16.20;10.17;;;;;;;5.88;70.77;97147.53;5014031;28;20183;-66
2021/03/25 01:23:53;;;;;;;17.37;9.13;;;;;;;5.89;70.95;97158.72;5013289;28;20179;-65
2021/03/25 01:26:18;;;;;;;14.17;9.93;;;;;;;5.83;71.30;97153.25;5014600;28;20509;-65
2021/03/25 01:28:44;;;;;;;16.07;9.60;;;;;;;5.88;71.54;97155.31;5012887;28;20202;-66
2021/03/25 01:31:09;;;;;;;15.73;10.47;;;;;;;5.95;71.34;97148.38;5013528;28;20171;-69
2021/03/25 01:33:35;;;;;;;14.10;10.73;;;;;;;5.86;71.50;97152.06;5013759;28;20238;-65
2021/03/25 01:36:00;;;;;;;14.33;9.83;;;;;;;5.82;71.43;97143.84;5012528;28;20670;-66
2021/03/25 01:38:26;;;;;;;13.33;10.07;;;;;;;5.86;70.61;97146.88;5013515;28;20187;-66
2021/03/25 01:40:55;;;;;;;16.53;10.07;;;;;;;5.84;70.74;97146.28;4995519;28;20507;-66
2021/03/25 01:43:29;;;;;;;14.47;9.80;;;;;;;5.86;70.81;97150.28;5013884;28;20179;-65
2021/03/25 01:46:07;;;;;;;14.33;10.03;;;;;;;6.03;70.33;97135.22;5012975;28;20202;-65
2021/03/25 01:48:37;;;;;;;13.33;9.30;;;;;;;6.02;70.26;97136.22;5013569;28;20199;-65
2021/03/25 01:51:14;;;;;;;13.00;9.33;;;;;;;5.95;70.42;97145.78;5012538;28;20209;-65
2021/03/25 01:53:48;;;;;;;14.90;9.83;;;;;;;6.03;70.38;97131.81;5011306;28;20737;-73
2021/03/25 01:56:48;;;;;;;16.23;9.50;;;;;;;5.90;70.72;97135.16;5013316;28;20207;-66
2021/03/25 01:59:38;;;;;;;14.10;9.70;;;;;;;5.93;71.13;97139.16;5009336;28;20178;-66
2021/03/25 02:02:35;;;;;;;13.17;8.50;;;;;;;5.81;71.43;97142.22;4998355;28;20206;-66
2021/03/25 02:05:06;;;;;;;17.53;9.43;;;;;;;5.90;71.46;97131.75;5012577;28;20279;-65
2021/03/25 02:07:50;;;;;;;13.37;9.20;;;;;;;5.85;71.85;97129.69;5013334;28;20183;-65
2021/03/25 02:10:39;;;;;;;12.87;9.23;;;;;;;5.94;71.22;97123.34;5012789;28;20242;-65
2021/03/25 02:13:15;;;;;;;13.17;8.57;;;;;;;5.84;71.70;97123.66;4995256;28;20187;-65
2021/03/25 02:15:52;;;;;;;12.80;9.10;;;;;;;5.77;72.15;97124.59;5012290;28;20183;-73
2021/03/25 02:18:44;;;;;;;16.07;9.10;;;;;;;5.79;72.33;97120.03;5013140;28;20171;-65
2021/03/25 02:21:29;;;;;;;12.10;9.07;;;;;;;5.66;72.74;97120.72;5009768;28;20199;-66
2021/03/25 02:24:21;;;;;;;15.97;9.07;;;;;;;5.62;72.96;97119.47;5011935;28;20179;-65
2021/03/25 02:26:54;;;;;;;11.23;8.83;;;;;;;5.50;73.37;97118.38;4998360;28;20200;-65
2021/03/25 02:29:45;;;;;;;12.87;8.30;;;;;;;5.53;73.35;97115.38;4994012;28;20175;-65
2021/03/25 02:32:16;;;;;;;13.20;8.90;;;;;;;5.42;73.69;97111.50;4999552;28;20503;-65
2021/03/25 02:34:51;;;;;;;12.27;8.37;;;;;;;5.46;74.24;97114.53;5012072;28;20602;-73
2021/03/25 02:37:29;;;;;;;9.93;7.70;;;;;;;5.36;74.35;97106.22;5009406;28;20175;-66
2021/03/25 02:40:10;;;;;;;10.83;8.57;;;;;;;5.28;74.76;97107.16;5012197;28;20183;-65
2021/03/25 02:42:48;;;;;;;14.90;9.13;;;;;;;5.30;75.15;97109.56;5012921;28;20722;-65
2021/03/25 02:45:25;;;;;;;8.70;7.33;;;;;;;5.37;75.02;97113.84;5011402;28;20206;-66
2021/03/25 02:47:59;;;;;;;11.37;8.53;;;;;;;5.31;74.49;97111.97;5011661;28;20178;-65
2021/03/25 02:50:34;;;;;;;16.37;8.30;;;;;;;5.38;74.59;97112.84;5012573;28;20178;-65
2021/03/25 02:53:18;;;;;;;12.90;8.00;;;;;;;5.46;73.67;97114.53;5011729;28;20221;-65
2021/03/25 02:55:44;;;;;;;13.33;8.30;;;;;;;5.31;74.55;97114.56;5011501;28;20210;-72
2021/03/25 02:58:16;;;;;;;9.90;8.10;;;;;;;5.34;74.58;97110.81;5012409;28;20207;-66
2021/03/25 03:00:47;;;;;;;10.03;8.60;;;;;;;5.27;74.73;97108.16;5011952;28;20187;-73
2021/03/25 03:03:18;;;;;;;13.23;8.50;;;;;;;5.25;74.80;97111.91;5011928;28;20688;-65
2021/03/25 03:05:47;;;;;;;14.40;9.30;;;;;;;5.16;75.09;97105.22;5011695;28;20210;-72
2021/03/25 03:08:21;;;;;;;11.77;8.10;;;;;;;5.07;75.13;97111.53;5011199;28;20226;-66
2021/03/25 03:10:56;;;;;;;11.40;8.13;;;;;;;5.09;75.25;97118.16;5011359;28;20179;-66
2021/03/25 03:13:25;;;;;;;12.63;8.67;;;;;;;4.89;75.54;97109.34;4996268;28;20194;-65
2021/03/25 03:16:02;;;;;;;12.93;8.47;;;;;;;4.72;76.62;97108.75;5010726;28;20198;-65
2021/03/25 03:18:57;;;;;;;12.07;8.23;;;;;;;4.76;76.21;97110.00;5011923;28;20246;-69
2021/03/25 03:21:35;;;;;;;11.40;8.17;;;;;;;4.65;76.66;97112.25;5012295;28;20190;-65
2021/03/25 03:24:01;;;;;;;13.10;7.73;;;;;;;4.66;76.97;97108.66;4995576;28;20626;-65
2021/03/25 03:26:31;;;;;;;9.93;7.90;;;;;;;4.74;76.66;97100.75;5011427;28;20195;-65
2021/03/25 03:29:04;;;;;;;11.27;7.37;;;;;;;4.69;77.09;97110.88;5009717;28;20187;-66
2021/03/25 03:31:54;;;;;;;9.60;7.57;;;;;;;4.93;76.01;97110.59;5011627;28;20544;-66
2021/03/25 03:34:36;;;;;;;9.43;7.60;;;;;;;4.72;77.29;97113.13;5010939;28;20199;-66
2021/03/25 03:37:14;;;;;;;11.70;8.23;;;;;;;4.85;76.97;97103.69;5010519;28;20254;-66
2021/03/25 03:39:41;;;;;;;10.27;7.83;;;;;;;4.83;76.40;97108.28;4993977;28;20171;-66
2021/03/25 03:42:14;;;;;;;10.87;8.07;;;;;;;4.88;75.97;97105.13;5011632;28;20257;-64
2021/03/25 03:44:45;;;;;;;10.03;7.37;;;;;;;4.77;76.74;97103.81;5011306;28;20199;-65
2021/03/25 03:47:13;;;;;;;9.50;7.27;;;;;;;4.82;76.40;97108.47;5011416;28;20171;-65
2021/03/25 03:49:45;;;;;;;9.10;6.97;;;;;;;4.75;76.64;97102.38;5011721;28;20195;-65
2021/03/25 03:52:27;;;;;;;8.83;7.23;;;;;;;4.72;76.14;97111.34;5011397;28;20186;-65
2021/03/25 03:54:54;;;;;;;10.30;7.07;;;;;;;4.90;75.83;97108.38;5010958;28;20576;-65
2021/03/25 03:57:41;;;;;;;13.23;7.77;;;;;;;4.85;75.94;97108.88;5010988;28;20293;-65
2021/03/25 04:00:12;;;;;;;10.50;6.53;;;;;;;4.83;75.68;97104.88;5010448;28;20183;-65
2021/03/25 04:02:42;;;;;;;11.57;7.20;;;;;;;4.78;76.19;97105.44;5011536;28;20187;-65
2021/03/25 04:05:15;;;;;;;9.97;6.87;;;;;;;4.83;75.72;97100.50;5010599;28;20198;-68
2021/03/25 04:07:46;;;;;;;9.27;7.17;;;;;;;4.78;75.77;97102.03;5011767;28;20174;-65
2021/03/25 04:10:22;;;;;;;10.30;7.20;;;;;;;4.68;76.32;97102.28;5011425;28;20245;-65
2021/03/25 04:12:53;;;;;;;8.20;6.90;;;;;;;4.54;77.00;97105.72;5010873;28;20622;-68
2021/03/25 04:15:24;;;;;;;7.73;6.40;;;;;;;4.76;76.07;97104.00;5010985;28;20214;-67
2021/03/25 04:18:30;;;;;;;9.40;6.77;;;;;;;4.68;76.38;97098.91;5010753;28;20214;-65
2021/03/25 04:21:07;;;;;;;8.43;6.57;;;;;;;4.69;76.45;97100.50;5000674;28;20206;-65
2021/03/25 04:23:36;;;;;;;9.83;7.00;;;;;;;4.67;76.09;97097.31;5015069;28;20183;-65
2021/03/25 04:26:10;;;;;;;8.30;6.27;;;;;;;4.69;76.21;97100.50;5014163;28;20278;-65
2021/03/25 04:28:47;;;;;;;9.07;6.50;;;;;;;4.73;76.34;97099.16;5014353;28;20224;-65
2021/03/25 04:31:12;;;;;;;9.73;7.13;;;;;;;4.68;76.21;97098.91;5014983;28;20171;-66
2021/03/25 04:33:39;;;;;;;8.43;6.57;;;;;;;4.56;77.17;97101.97;5014746;28;20225;-69
2021/03/25 04:36:11;;;;;;;8.83;6.90;;;;;;;4.62;76.35;97100.44;5014354;28;20187;-65
2021/03/25 04:38:39;;;;;;;9.10;6.73;;;;;;;4.54;76.55;97098.75;5014582;28;20179;-65
2021/03/25 04:41:06;;;;;;;11.53;7.13;;;;;;;4.52;76.83;97097.31;5014257;28;20824;-65
2021/03/25 04:43:31;;;;;;;8.63;7.07;;;;;;;4.46;76.48;97092.81;5014887;28;20198;-65
2021/03/25 04:46:30;;;;;;;9.33;7.10;;;;;;;4.48;77.18;97098.66;4996355;28;20643;-65
2021/03/25 04:49:04;;;;;;;9.83;7.80;;;;;;;4.53;76.61;97099.72;5013695;28;20617;-66
2021/03/25 04:51:30;;;;;;;9.30;7.00;;;;;;;4.36;77.14;97092.31;5005135;28;20179;-65
2021/03/25 04:54:18;;;;;;;10.67;6.77;;;;;;;4.36;77.03;97097.50;5014322;28;20361;-65
2021/03/25 04:56:44;;;;;;;8.60;7.30;;;;;;;4.38;77.11;97098.94;5014388;28;20242;-65
2021/03/25 04:59:10;;;;;;;11.57;7.13;;;;;;;4.42;77.02;97100.19;5013890;28;20646;-65
2021/03/25 05:01:35;;;;;;;7.83;6.83;;;;;;;4.40;77.59;97091.75;5014786;28;20175;-65
2021/03/25 05:04:04;;;;;;;8.20;6.87;;;;;;;4.34;77.35;97091.69;5013467;28;20626;-65
2021/03/25 05:06:51;;;;;;;8.63;6.83;;;;;;;4.36;77.79;97098.31;5014390;28;20175;-65
2021/03/25 05:09:22;;;;;;;8.13;7.17;;;;;;;4.42;77.37;97102.78;4996831;28;20577;-65
2021/03/25 05:11:48;;;;;;;7.53;6.53;;;;;;;4.41;76.59;97093.38;5013812;28;20174;-72
2021/03/25 05:14:20;;;;;;;10.17;6.47;;;;;;;4.46;76.23;97098.81;5013929;28;20194;-65
2021/03/25 05:16:48;;;;;;;10.97;6.13;;;;;;;4.51;76.45;97095.72;5014264;28;20562;-72
2021/03/25 05:19:25;;;;;;;8.33;6.10;;;;;;;4.57;75.98;97098.38;5013746;28;20182;-65
2021/03/25 05:22:00;;;;;;;8.80;6.50;;;;;;;4.60;75.18;97107.59;4995842;28;20195;-65
2021/03/25 05:24:43;;;;;;;10.43;6.57;;;;;;;4.62;75.40;97110.84;5013677;28;20759;-65
2021/03/25 05:27:08;;;;;;;6.50;5.73;;;;;;;4.62;75.84;97103.03;5013141;28;20748;-65
2021/03/25 05:29:37;;;;;;;8.10;6.40;;;;;;;4.64;75.02;97103.66;5013629;28;20171;-65
2021/03/25 05:32:03;;;;;;;7.17;6.43;;;;;;;4.71;74.57;97114.13;5012284;28;20201;-65
2021/03/25 05:34:31;;;;;;;7.97;6.53;;;;;;;4.62;74.95;97107.44;5013736;28;20357;-65
2021/03/25 05:36:58;;;;;;;6.97;6.23;;;;;;;4.68;74.98;97115.28;5012991;28;20273;-65
2021/03/25 05:39:24;;;;;;;10.40;6.70;;;;;;;4.72;74.73;97113.13;5013615;28;20183;-65
2021/03/25 05:42:15;;;;;;;7.27;5.93;;;;;;;4.79;73.90;97114.03;5013354;28;20576;-72
2021/03/25 05:44:53;;;;;;;9.20;6.50;;;;;;;4.85;73.32;97115.88;4997722;28;20191;-65
2021/03/25 05:47:37;;;;;;;8.30;6.47;;;;;;;4.93;72.54;97110.59;5013388;28;20171;-66
2021/03/25 05:50:36;;;;;;;11.63;7.00;;;;;;;4.86;72.94;97109.69;5012915;28;20175;-64
2021/03/25 05:53:01;;;;;;;7.70;6.23;;;;;;;4.92;72.14;97111.56;4981980;28;20187;-64
2021/03/25 05:55:59;;;;;;;7.57;6.33;;;;;;;4.96;72.48;97116.19;5013274;28;20629;-65
2021/03/25 05:58:38;;;;;;;8.53;6.30;;;;;;;5.13;72.09;97127.19;5013900;28;20211;-65
2021/03/25 06:01:45;;;;;;;10.10;7.33;;;;;;;5.09;72.13;97120.75;4994720;28;20181;-65
2021/03/25 06:04:19;;;;;;;8.87;7.67;;;;;;;4.90;72.86;97121.34;4965889;28;20661;-64
2021/03/25 06:06:50;;;;;;;10.07;7.57;;;;;;;4.93;72.65;97119.19;5013267;28;20191;-64
2021/03/25 06:09:34;;;;;;;10.17;7.33;;;;;;;5.09;72.09;97123.34;5013146;28;20182;-64
2021/03/25 06:12:27;;;;;;;10.33;8.00;;;;;;;5.31;71.02;97130.16;4997243;28;20633;-64
2021/03/25 06:15:27;;;;;;;11.27;8.07;;;;;;;5.46;70.80;97134.53;5011874;28;20580;-65
2021/03/25 06:18:07;;;;;;;9.97;7.13;;;;;;;5.53;70.33;97135.38;4972135;28;20230;-65
2021/03/25 06:21:18;;;;;;;9.10;7.10;;;;;;;5.49;70.34;97134.13;5013154;28;20214;-69
2021/03/25 06:23:54;;;;;;;8.60;7.23;;;;;;;5.79;76.20;97130.44;4975019;28;20198;-64
2021/03/25 06:26:28;;;;;;;9.73;7.27;;;;;;;6.76;74.51;97136.47;5012775;28;20198;-64
2021/03/25 06:29:09;;;;;;;11.17;7.27;;;;;;;7.66;65.05;97132.69;5011170;28;20633;-67
2021/03/25 06:31:53;;;;;;;9.97;7.10;;;;;;;7.52;64.28;97137.13;4995452;28;20190;-65
2021/03/25 06:34:40;;;;;;;9.17;7.53;;;;;;;7.15;64.21;97140.22;5012699;28;20163;-65
2021/03/25 06:37:16;;;;;;;9.20;7.33;;;;;;;7.01;64.74;97144.59;5011821;28;20210;-67
2021/03/25 06:39:45;;;;;;;10.20;7.47;;;;;;;6.95;64.78;97146.19;4995062;28;20182;-65
2021/03/25 06:42:44;;;;;;;9.03;7.60;;;;;;;6.95;65.26;97138.34;5011489;28;20808;-65
2021/03/25 06:45:20;;;;;;;9.87;7.33;;;;;;;6.95;64.88;97140.97;5010756;28;20187;-65
2021/03/25 06:48:18;;;;;;;8.17;6.63;;;;;;;7.01;64.77;97139.38;5012453;28;20175;-65
2021/03/25 06:50:47;;;;;;;7.60;6.80;;;;;;;6.94;64.66;97141.16;5000056;28;20238;-65
2021/03/25 06:53:19;;;;;;;10.10;7.20;;;;;;;7.08;64.01;97148.81;5011596;28;20191;-64
2021/03/25 06:55:44;;;;;;;8.10;6.90;;;;;;;7.00;63.90;97150.81;5012358;28;20262;-66
2021/03/25 06:58:14;;;;;;;9.90;6.87;;;;;;;7.23;63.29;97153.88;4995339;28;20255;-65
2021/03/25 07:00:46;;;;;;;9.53;7.03;;;;;;;7.31;63.14;97151.09;5012282;28;20216;-65
2021/03/25 07:03:16;;;;;;;12.30;6.80;;;;;;;7.30;63.22;97153.91;4995442;28;20174;-64
2021/03/25 07:05:42;;;;;;;8.57;6.80;;;;;;;7.24;63.72;97154.69;5012126;28;20238;-64
2021/03/25 07:08:14;;;;;;;8.37;6.77;;;;;;;7.56;62.48;97142.72;5011540;28;20262;-64
2021/03/25 07:10:39;;;;;;;12.07;6.70;;;;;;;7.38;62.55;97151.13;5011895;28;20180;-65
2021/03/25 07:13:07;;;;;;;10.20;7.50;;;;;;;7.70;62.70;97147.75;5011180;28;20186;-64
2021/03/25 07:15:40;;;;;;;10.33;7.30;;;;;;;7.69;63.71;97147.97;5011930;28;20187;-64
2021/03/25 07:18:21;;;;;;;10.50;7.10;;;;;;;7.76;63.97;97149.56;5011256;28;20206;-64
2021/03/25 07:20:46;;;;;;;8.60;7.60;;;;;;;7.89;63.93;97152.19;4993397;28;20535;-64
2021/03/25 07:23:15;;;;;;;11.27;7.60;;;;;;;7.91;63.45;97165.06;4988499;28;20214;-65
2021/03/25 07:25:43;;;;;;;7.50;6.60;;;;;;;7.94;62.68;97154.19;5011898;28;20214;-64
2021/03/25 07:28:35;;;;;;;9.67;7.67;;;;;;;7.91;63.72;97157.22;5010693;28;20315;-64
2021/03/25 07:31:03;;;;;;;11.87;6.90;;;;;;;7.96;64.24;97161.84;5006319;28;20229;-64
2021/03/25 07:33:38;;;;;;;12.63;7.87;;;;;;;8.18;63.91;97160.63;5011320;28;20182;-64
2021/03/25 07:36:10;;;;;;;10.93;7.27;;;;;;;8.25;62.83;97156.19;5010108;28;20182;-64
2021/03/25 07:38:37;;;;;;;10.33;6.93;;;;;;;8.39;61.28;97160.44;5011201;28;20194;-64
2021/03/25 07:41:22;;;;;;;10.60;5.97;;;;;;;8.50;61.37;97153.78;5009848;28;20176;-64
2021/03/25 07:44:02;;;;;;;8.43;6.33;;;;;;;8.65;60.87;97151.72;5012124;28;20183;-65
2021/03/25 07:46:43;;;;;;;8.33;6.83;;;;;;;8.75;61.00;97157.31;5011467;28;20234;-64
2021/03/25 07:49:12;;;;;;;8.97;6.60;;;;;;;8.82;60.71;97155.50;5009497;28;20191;-64
2021/03/25 07:51:54;;;;;;;8.03;6.30;;;;;;;8.96;61.02;97161.50;5011005;28;20556;-64
2021/03/25 07:54:34;;;;;;;9.17;6.57;;;;;;;9.09;61.99;97157.00;5010784;28;20653;-65
2021/03/25 07:57:10;;;;;;;9.10;6.80;;;;;;;9.19;59.62;97154.75;5009799;28;20226;-64
2021/03/25 07:59:43;;;;;;;10.43;6.70;;;;;;;9.44;59.71;97170.53;5011422;28;20250;-64
2021/03/25 08:02:29;;;;;;;12.67;7.27;;;;;;;9.58;59.05;97169.44;5010722;28;20179;-64
2021/03/25 08:04:56;;;;;;;7.23;5.73;;;;;;;9.71;57.91;97163.31;5009873;28;20665;-67
2021/03/25 08:07:22;;;;;;;6.50;5.73;;;;;;;9.67;56.94;97169.19;4979520;28;20205;-64
2021/03/25 08:09:53;;;;;;;7.70;5.80;;;;;;;9.82;57.31;97167.06;5011190;28;20204;-64
2021/03/25 08:12:39;;;;;;;8.33;5.33;;;;;;;10.04;55.80;97160.47;5011388;28;20159;-64
2021/03/25 08:15:20;;;;;;;10.93;5.77;;;;;;;9.97;56.15;97157.88;5010198;28;20206;-64
2021/03/25 08:18:06;;;;;;;9.17;5.63;;;;;;;10.11;56.37;97166.44;5010962;28;20171;-65
2021/03/25 08:20:53;;;;;;;9.07;5.40;;;;;;;10.36;54.63;97154.19;4998024;28;20241;-64
2021/03/25 08:23:44;;;;;;;5.17;4.67;;;;;;;10.59;53.96;97156.16;5011578;28;20520;-64
2021/03/25 08:26:19;;;;;;;6.73;5.30;;;;;;;10.79;53.21;97159.38;4992415;28;20421;-64
2021/03/25 08:28:57;;;;;;;6.53;4.50;;;;;;;10.97;52.47;97155.97;5010427;28;20175;-64
2021/03/25 08:31:31;;;;;;;9.07;5.33;;;;;;;11.15;52.76;97161.19;5004437;28;20179;-64
2021/03/25 08:34:15;;;;;;;6.57;5.20;;;;;;;11.27;52.74;97158.63;4992134;28;20531;-64
2021/03/25 08:37:10;;;;;;;9.00;6.07;;;;;;;11.30;53.01;97152.13;4992546;28;20175;-64
2021/03/25 08:39:53;;;;;;;5.50;5.00;;;;;;;11.29;53.90;97161.03;5010522;28;20242;-64
2021/03/25 08:42:27;;;;;;;9.57;6.03;;;;;;;11.42;53.97;97160.88;5010893;28;20262;-64
2021/03/25 08:44:58;;;;;;;7.03;5.63;;;;;;;11.57;53.33;97163.88;5009856;28;20592;-70
2021/03/25 08:47:45;;;;;;;8.23;5.70;;;;;;;11.65;54.06;97163.53;5010815;28;20175;-67
2021/03/25 08:50:31;;;;;;;10.53;6.33;;;;;;;11.80;54.58;97168.44;5009967;28;20167;-64
2021/03/25 08:53:02;;;;;;;10.53;5.87;;;;;;;11.82;53.90;97172.41;5010296;28;20249;-64
2021/03/25 08:55:36;;;;;;;9.33;5.63;;;;;;;11.93;53.48;97153.25;5006805;28;20171;-66
2021/03/25 08:58:08;;;;;;;10.23;6.23;;;;;;;11.94;53.82;97154.06;5009831;28;20221;-64
2021/03/25 09:00:39;;;;;;;10.20;5.43;;;;;;;11.95;53.82;97159.09;5011046;28;20166;-64
2021/03/25 09:03:25;;;;;;;10.80;5.60;;;;;;;12.03;54.00;97150.09;5009879;28;20238;-64
2021/03/25 09:06:08;;;;;;;8.03;5.87;;;;;;;12.16;53.92;97164.84;5009808;28;20206;-70
2021/03/25 09:08:37;;;;;;;8.27;6.03;;;;;;;12.22;53.78;97156.84;5014423;28;20224;-65
2021/03/25 09:11:07;;;;;;;9.00;6.90;;;;;;;12.43;54.34;97161.53;5012800;28;20180;-65
2021/03/25 09:13:39;;;;;;;9.90;6.60;;;;;;;12.39;54.69;97164.84;5015107;28;20262;-65
2021/03/25 09:16:21;;;;;;;6.57;5.73;;;;;;;12.57;54.10;97161.31;5013496;28;20619;-63
2021/03/25 09:18:49;;;;;;;13.37;6.07;;;;;;;12.73;53.53;97158.78;5013887;28;20186;-63
2021/03/25 09:21:23;;;;;;;9.67;6.23;;;;;;;12.89;54.04;97158.06;5013458;28;20187;-63
2021/03/25 09:24:01;;;;;;;9.87;6.70;;;;;;;13.02;53.55;97151.75;5014298;28;20174;-65
2021/03/25 09:26:26;;;;;;;8.80;6.73;;;;;;;12.91;54.65;97149.97;4996601;28;20230;-64
2021/03/25 09:29:03;;;;;;;12.33;6.57;;;;;;;12.91;54.18;97155.22;5013397;28;20493;-69
2021/03/25 09:31:34;;;;;;;10.80;6.33;;;;;;;12.99;53.79;97157.47;5013904;28;20209;-64
2021/03/25 09:34:20;;;;;;;7.97;6.37;;;;;;;13.03;54.21;97153.38;5012749;28;20179;-64
2021/03/25 09:36:48;;;;;;;7.07;5.63;;;;;;;13.14;53.08;97157.84;5003827;28;20254;-65
2021/03/25 09:39:25;;;;;;;8.37;5.30;;;;;;;13.08;52.01;97160.56;5012566;28;20203;-64
2021/03/25 09:41:51;;;;;;;6.97;6.00;;;;;;;13.20;53.37;97159.53;5012760;28;20645;-71
2021/03/25 09:44:19;;;;;;;10.67;6.10;;;;;;;13.19;53.12;97162.38;5013084;28;20183;-65
2021/03/25 09:46:54;;;;;;;10.87;6.73;;;;;;;13.16;53.35;97166.28;5003875;28;20219;-65
2021/03/25 09:49:28;;;;;;;10.37;6.00;;;;;;;13.10;54.00;97166.38;5013087;28;20170;-64
2021/03/25 09:52:20;;;;;;;9.00;5.63;;;;;;;13.23;53.14;97166.94;5012931;28;20198;-70
2021/03/25 09:54:57;;;;;;;10.83;5.73;;;;;;;13.20;53.52;97167.44;5012693;28;20191;-64
2021/03/25 09:57:36;;;;;;;9.07;6.30;;;;;;;13.36;53.11;97170.34;5013312;28;20239;-64
2021/03/25 10:00:24;;;;;;;7.17;5.97;;;;;;;13.56;52.43;97162.81;5000411;28;20163;-64
2021/03/25 10:02:56;;;;;;;10.07;5.30;;;;;;;13.63;52.25;97166.13;5004055;28;20663;-67
2021/03/25 10:05:22;;;;;;;7.33;5.83;;;;;;;13.78;51.71;97168.22;5012837;28;20202;-64
2021/03/25 10:07:49;;;;;;;9.63;6.27;;;;;;;13.79;52.27;97162.72;5013136;28;20179;-65
2021/03/25 10:10:42;;;;;;;8.50;5.70;;;;;;;13.65;52.41;97164.84;5011858;28;20646;-65
2021/03/25 10:13:07;;;;;;;9.33;6.00;;;;;;;13.77;51.88;97158.69;5003409;28;20179;-64
2021/03/25 10:15:42;;;;;;;7.23;5.00;;;;;;;13.80;51.34;97160.88;5013127;28;20198;-64
2021/03/25 10:18:16;;;;;;;5.63;5.13;;;;;;;13.32;51.84;97162.91;5011540;28;20189;-64
2021/03/25 10:20:48;;;;;;;10.20;6.10;;;;;;;13.14;51.19;97162.28;5012724;28;20178;-64
2021/03/25 10:23:49;;;;;;;12.83;7.17;;;;;;;13.27;50.33;97162.00;5011803;28;20194;-65
2021/03/25 10:26:36;;;;;;;9.53;5.80;;;;;;;13.06;46.88;97157.34;4998764;28;20223;-64
2021/03/25 10:29:11;;;;;;;13.23;7.60;;;;;;;13.33;48.77;97156.59;4993509;28;20186;-64
2021/03/25 10:32:18;;;;;;;7.83;4.70;;;;;;;13.13;46.02;97150.97;5011978;28;20542;-65
2021/03/25 10:34:44;;;;;;;6.90;4.43;;;;;;;13.28;44.62;97143.34;4973926;28;20657;-64
2021/03/25 10:37:32;;;;;;;10.57;5.10;;;;;;;13.26;45.78;97147.28;5011183;28;20533;-64
2021/03/25 10:40:00;;;;;;;8.20;4.60;;;;;;;13.23;44.64;97148.53;5009420;28;20190;-64
2021/03/25 10:42:33;;;;;;;8.73;4.83;;;;;;;13.14;45.30;97146.50;5012648;28;20198;-64
2021/03/25 10:45:15;;;;;;;10.03;4.67;;;;;;;13.20;44.83;97140.31;5010888;28;20630;-65
2021/03/25 10:47:49;;;;;;;7.93;4.83;;;;;;;13.24;44.79;97144.06;5010606;28;20186;-65
2021/03/25 10:50:20;;;;;;;10.87;4.47;;;;;;;13.25;45.83;97141.19;5011488;28;20230;-67
2021/03/25 10:52:46;;;;;;;10.40;4.63;;;;;;;13.38;45.85;97131.41;5012131;28;20168;-64
2021/03/25 10:55:26;;;;;;;6.23;4.30;;;;;;;13.10;45.23;97132.97;5011461;28;20194;-65
2021/03/25 10:57:55;;;;;;;8.17;4.83;;;;;;;13.33;45.43;97126.84;5004366;28;20227;-70
2021/03/25 11:00:31;;;;;;;5.70;4.27;;;;;;;13.37;44.02;97129.84;4993740;28;20179;-65
2021/03/25 11:02:58;;;;;;;5.83;4.30;;;;;;;13.28;43.70;97130.19;5011437;28;20182;-65
2021/03/25 11:05:26;;;;;;;9.40;4.07;;;;;;;13.37;43.64;97130.63;5011999;28;20284;-64
2021/03/25 11:07:58;;;;;;;8.73;4.90;;;;;;;13.18;44.03;97127.38;5011296;28;20634;-70
2021/03/25 11:10:29;;;;;;;8.70;4.80;;;;;;;13.30;44.75;97122.88;5011788;28;20175;-64
2021/03/25 11:12:56;;;;;;;6.10;4.13;;;;;;;13.40;45.18;97116.97;5011476;28;20210;-70
2021/03/25 11:15:29;;;;;;;6.30;4.17;;;;;;;13.58;42.23;97127.31;5011761;28;20676;-65
2021/03/25 11:17:55;;;;;;;6.23;4.40;;;;;;;13.55;42.68;97119.88;4996078;28;20174;-70
2021/03/25 11:20:24;;;;;;;8.13;4.90;;;;;;;13.59;43.30;97114.97;5011657;28;20521;-64
2021/03/25 11:22:51;;;;;;;6.83;4.57;;;;;;;13.77;43.92;97103.38;5012351;28;20185;-64
2021/03/25 11:25:28;;;;;;;6.17;4.23;;;;;;;13.83;42.89;97105.88;5011257;28;20209;-65
2021/03/25 11:28:02;;;;;;;12.50;4.70;;;;;;;13.74;43.80;97109.94;4995831;28;20171;-70
2021/03/25 11:30:39;;;;;;;15.53;5.40;;;;;;;13.75;44.02;97108.91;5010932;28;20579;-64
2021/03/25 11:33:40;;;;;;;10.07;4.50;;;;;;;14.05;42.86;97106.75;5009753;28;20179;-68
2021/03/25 11:36:07;;;;;;;11.10;4.87;;;;;;;14.03;43.03;97111.47;4911026;29;20208;-65
2021/03/25 11:38:38;;;;;;;10.63;6.10;;;;;;;13.92;43.22;97095.75;4991277;28;20200;-65
2021/03/25 11:41:10;;;;;;;6.87;4.67;;;;;;;14.24;41.68;97088.84;5010268;28;20163;-65
2021/03/25 11:43:50;;;;;;;7.50;4.57;;;;;;;14.41;41.41;97094.91;5011477;28;20222;-65
2021/03/25 11:46:28;;;;;;;13.77;5.03;;;;;;;14.42;40.59;97101.00;5010495;28;20198;-65
2021/03/25 11:49:17;;;;;;;7.00;4.50;;;;;;;14.37;40.54;97082.47;5011132;28;20278;-70
2021/03/25 11:51:59;;;;;;;7.40;4.37;;;;;;;14.57;41.07;97090.66;5011770;28;20223;-65
2021/03/25 11:54:29;;;;;;;9.30;5.50;;;;;;;14.54;41.33;97086.63;4993697;28;20186;-65
2021/03/25 11:57:16;;;;;;;7.43;4.77;;;;;;;14.70;41.09;97092.94;5004479;28;20226;-69
2021/03/25 11:59:42;;;;;;;12.32;5.10;;;;;;;14.62;41.08;97082.00;4995384;28;20197;-66
2021/03/25 12:02:23;;;;;;;6.73;5.17;;;;;;;14.44;41.37;97078.59;4992253;28;20187;-65
2021/03/25 12:04:50;;;;;;;7.60;4.87;;;;;;;14.39;42.29;97075.09;5011409;28;20191;-65
2021/03/25 12:07:19;;;;;;;9.37;5.03;;;;;;;14.48;42.34;97076.28;5010386;28;20266;-66
2021/03/25 12:10:12;;;;;;;7.43;4.37;;;;;;;14.49;41.55;97081.28;4987650;28;20180;-65